Time;durP1;ratioP1;P1;durP2;ratioP2;P2;SDS_P1;SDS_P2;PMS_P1;PMS_P2;Temp;Humidity;BMP_temperature;BMP_pressure;BME280_temperature;BME280_humidity;BME280_pressure;Samples;Min_cycle;Max_cycle;Signal;HPM_P1;HPM_P2
2023/02/10 00:00:19;;;;;;;;;;;3.60;99.90;;;;;;5090739;28;19915;-63
2023/02/10 00:02:45;;;;;;;;;;;3.50;99.90;;;;;;5090663;28;19908;-65
2023/02/10 00:05:11;;;;;;;;;;;3.40;99.90;;;;;;5090993;28;20281;-65
2023/02/10 00:07:36;;;;;;;;;;;3.50;99.90;;;;;;5089521;28;19909;-64
2023/02/10 00:10:02;;;;;;;;;;;3.50;99.90;;;;;;5090218;28;19985;-65
2023/02/10 00:12:27;;;;;;;;;;;3.60;99.90;;;;;;5087551;28;19919;-65
2023/02/10 00:14:53;;;;;;;;;;;3.50;99.90;;;;;;5092001;28;19912;-65
2023/02/10 00:17:19;;;;;;;;;;;3.60;99.90;;;;;;5047929;28;19908;-64
2023/02/10 00:19:45;;;;;;;;;;;3.50;99.90;;;;;;5092607;28;19916;-63
2023/02/10 00:22:10;;;;;;;;;;;3.50;99.90;;;;;;5092772;28;19927;-66
2023/02/10 00:24:36;;;;;;;;;;;3.60;99.90;;;;;;5089337;28;20584;-62
2023/02/10 00:27:01;;;;;;;;;;;3.60;99.90;;;;;;5093188;28;20324;-61
2023/02/10 00:29:28;;;;;;;;;;;3.60;99.90;;;;;;5092341;28;19908;-65
2023/02/10 00:31:53;;;;;;;;;;;3.60;99.90;;;;;;5091938;28;20340;-62
2023/02/10 00:34:19;;;;;;;;;;;3.60;99.90;;;;;;5092403;28;19952;-59
2023/02/10 00:36:44;;;;;;;;;;;3.60;99.90;;;;;;5093052;28;19912;-63
2023/02/10 00:39:14;;;;;;;;;;;3.60;99.90;;;;;;5095553;28;19927;-64
2023/02/10 00:41:40;;;;;;;;;;;3.60;99.90;;;;;;5090211;28;19908;-67
2023/02/10 00:44:05;;;;;;;;;;;3.60;99.90;;;;;;5091774;28;19912;-64
2023/02/10 00:46:31;;;;;;;;;;;3.60;99.90;;;;;;5092238;28;20052;-63
2023/02/10 00:48:56;;;;;;;;;;;3.60;99.90;;;;;;5091558;28;19908;-60
2023/02/10 00:51:22;;;;;;;;;;;3.70;99.90;;;;;;5091597;28;19908;-64
2023/02/10 00:53:49;;;;;;;;;;;3.70;99.90;;;;;;5092036;28;19944;-63
2023/02/10 00:56:15;;;;;;;;;;;3.70;99.90;;;;;;5091736;28;19947;-63
2023/02/10 00:58:41;;;;;;;;;;;3.80;99.90;;;;;;5089009;28;19951;-64
2023/02/10 01:01:06;;;;;;;;;;;3.60;99.90;;;;;;5094138;28;20341;-64
2023/02/10 01:03:32;;;;;;;;;;;3.60;99.90;;;;;;5090002;28;19920;-63
2023/02/10 01:05:58;;;;;;;;;;;3.50;99.90;;;;;;5092165;28;19916;-62
2023/02/10 01:08:24;;;;;;;;;;;3.50;99.90;;;;;;5091858;28;20308;-67
2023/02/10 01:10:56;;;;;;;;;;;3.40;99.90;;;;;;5091401;28;19913;-64
2023/02/10 01:13:22;;;;;;;;;;;3.40;99.90;;;;;;5080949;28;20431;-66
2023/02/10 01:15:48;;;;;;;;;;;3.50;99.90;;;;;;5080134;28;19916;-64
2023/02/10 01:18:14;;;;;;;;;;;3.70;99.90;;;;;;5083146;28;19915;-63
2023/02/10 01:20:40;;;;;;;;;;;3.50;99.90;;;;;;5081531;28;19955;-65
2023/02/10 01:23:06;;;;;;;;;;;3.50;99.90;;;;;;5081742;28;20003;-63
2023/02/10 01:25:32;;;;;;;;;;;3.60;99.90;;;;;;5080036;28;20311;-64
2023/02/10 01:27:58;;;;;;;;;;;3.60;99.90;;;;;;5082922;28;19975;-63
2023/02/10 01:30:24;;;;;;;;;;;3.50;99.90;;;;;;5085446;28;19944;-64
2023/02/10 01:32:52;;;;;;;;;;;3.50;99.90;;;;;;5093086;28;19920;-65
2023/02/10 01:35:17;;;;;;;;;;;3.50;99.90;;;;;;5096597;28;19956;-62
2023/02/10 01:37:43;;;;;;;;;;;3.60;99.90;;;;;;5078534;28;19916;-63
2023/02/10 01:40:09;;;;;;;;;;;3.60;99.90;;;;;;5089107;28;19919;-62
2023/02/10 01:42:35;;;;;;;;;;;3.50;99.90;;;;;;5065534;28;20362;-64
2023/02/10 01:45:13;;;;;;;;;;;3.40;99.90;;;;;;5079945;28;19916;-64
2023/02/10 01:47:40;;;;;;;;;;;3.50;99.90;;;;;;5080119;28;19999;-66
2023/02/10 01:50:06;;;;;;;;;;;3.70;99.90;;;;;;5078398;28;20385;-64
2023/02/10 01:52:33;;;;;;;;;;;3.70;99.90;;;;;;5080829;28;20041;-63
2023/02/10 01:55:19;;;;;;;;;;;3.60;99.90;;;;;;5085477;28;20253;-64
2023/02/10 01:57:45;;;;;;;;;;;3.50;99.90;;;;;;5079729;28;20556;-65
2023/02/10 02:00:11;;;;;;;;;;;3.50;99.90;;;;;;5080409;28;19922;-62
2023/02/10 02:02:37;;;;;;;;;;;3.60;99.90;;;;;;5080607;28;20171;-64
2023/02/10 02:05:05;;;;;;;;;;;3.70;99.90;;;;;;5080850;28;20450;-62
2023/02/10 02:07:36;;;;;;;;;;;3.70;99.90;;;;;;5081278;28;19916;-63
2023/02/10 02:10:02;;;;;;;;;;;3.60;99.90;;;;;;5080849;28;19912;-61
2023/02/10 02:12:46;;;;;;;;;;;3.60;99.90;;;;;;5080603;28;20441;-64
2023/02/10 02:15:21;;;;;;;;;;;3.60;99.90;;;;;;5095371;28;19912;-65
2023/02/10 02:18:02;;;;;;;;;;;3.50;99.90;;;;;;5081190;28;20262;-66
2023/02/10 02:21:03;;;;;;;;;;;3.50;99.90;;;;;;5084095;28;20006;-65
2023/02/10 02:23:38;;;;;;;;;;;3.40;99.90;;;;;;5003504;28;19983;-65
2023/02/10 02:26:21;;;;;;;;;;;3.50;99.90;;;;;;5078108;28;19912;-63
2023/02/10 02:28:50;;;;;;;;;;;3.60;99.90;;;;;;5094297;28;20393;-64
2023/02/10 02:31:24;;;;;;;;;;;3.60;99.90;;;;;;5099198;28;19999;-63
2023/02/10 02:34:16;;;;;;;;;;;3.60;99.90;;;;;;5098412;28;19931;-63
2023/02/10 02:36:48;;;;;;;;;;;3.60;99.90;;;;;;5066151;28;20380;-66
2023/02/10 02:39:13;;;;;;;;;;;3.50;99.90;;;;;;5079606;28;19917;-65
2023/02/10 02:41:39;;;;;;;;;;;3.50;99.90;;;;;;5094831;28;19916;-63
2023/02/10 02:44:05;;;;;;;;;;;3.60;99.90;;;;;;5098808;28;20005;-63
2023/02/10 02:46:46;;;;;;;;;;;3.60;99.90;;;;;;5098498;28;19908;-64
2023/02/10 02:49:12;;;;;;;;;;;3.70;99.90;;;;;;5099474;28;19908;-63
2023/02/10 02:51:57;;;;;;;;;;;3.70;99.90;;;;;;5097687;28;19908;-64
2023/02/10 02:54:23;;;;;;;;;;;3.60;99.90;;;;;;5095849;28;19990;-64
2023/02/10 02:56:49;;;;;;;;;;;3.40;99.90;;;;;;5083440;28;21607;-63
2023/02/10 02:59:23;;;;;;;;;;;3.50;99.90;;;;;;5079461;28;19916;-65
2023/02/10 03:01:56;;;;;;;;;;;3.60;99.90;;;;;;5079343;28;20331;-62
2023/02/10 03:04:23;;;;;;;;;;;3.50;99.90;;;;;;5076738;28;19931;-64
2023/02/10 03:06:48;;;;;;;;;;;3.30;99.90;;;;;;5083638;28;19916;-65
2023/02/10 03:09:14;;;;;;;;;;;3.30;99.90;;;;;;5078440;28;20038;-62
2023/02/10 03:11:40;;;;;;;;;;;3.20;99.90;;;;;;5078556;28;19970;-65
2023/02/10 03:14:06;;;;;;;;;;;3.20;99.90;;;;;;5082053;28;20401;-64
2023/02/10 03:16:31;;;;;;;;;;;3.20;99.90;;;;;;5090606;28;19916;-62
2023/02/10 03:18:57;;;;;;;;;;;3.30;99.90;;;;;;5079656;28;20369;-64
2023/02/10 03:21:23;;;;;;;;;;;3.50;99.90;;;;;;5076693;28;20494;-65
2023/02/10 03:23:48;;;;;;;;;;;3.40;99.90;;;;;;5081301;28;19966;-64
2023/02/10 03:26:14;;;;;;;;;;;3.40;99.90;;;;;;5072514;28;19916;-64
2023/02/10 03:28:39;;;;;;;;;;;3.50;99.90;;;;;;5079253;28;19915;-62
2023/02/10 03:31:06;;;;;;;;;;;3.60;99.90;;;;;;5077889;28;20340;-64
2023/02/10 03:33:31;;;;;;;;;;;3.60;99.90;;;;;;5077948;28;19920;-64
2023/02/10 03:35:57;;;;;;;;;;;3.60;99.90;;;;;;5079032;28;19920;-62
2023/02/10 03:38:24;;;;;;;;;;;3.70;99.90;;;;;;5078269;28;19963;-62
2023/02/10 03:40:50;;;;;;;;;;;3.60;99.90;;;;;;5081019;28;19916;-64
2023/02/10 03:43:16;;;;;;;;;;;3.70;99.90;;;;;;5085000;28;19919;-66
2023/02/10 03:45:42;;;;;;;;;;;3.60;99.90;;;;;;5079414;28;20469;-63
2023/02/10 03:48:08;;;;;;;;;;;3.60;99.90;;;;;;5078986;28;20311;-63
2023/02/10 03:50:34;;;;;;;;;;;3.40;99.90;;;;;;5079602;28;19926;-64
2023/02/10 03:53:00;;;;;;;;;;;3.50;99.90;;;;;;5064964;28;19916;-63
2023/02/10 03:55:26;;;;;;;;;;;3.50;99.90;;;;;;5079281;28;20294;-64
2023/02/10 03:57:52;;;;;;;;;;;3.60;99.90;;;;;;5073519;28;20061;-60
2023/02/10 04:00:17;;;;;;;;;;;3.70;99.90;;;;;;5080375;28;20054;-65
2023/02/10 04:02:43;;;;;;;;;;;3.60;99.90;;;;;;5083081;28;19912;-64
2023/02/10 04:05:09;;;;;;;;;;;3.60;99.90;;;;;;5077992;28;20277;-64
2023/02/10 04:07:35;;;;;;;;;;;3.60;99.90;;;;;;5080587;28;22005;-66
2023/02/10 04:10:00;;;;;;;;;;;3.50;99.90;;;;;;5078565;28;19912;-61
2023/02/10 04:12:26;;;;;;;;;;;3.60;99.90;;;;;;5080467;28;19912;-66
2023/02/10 04:14:51;;;;;;;;;;;3.60;99.90;;;;;;5078497;28;20457;-64
2023/02/10 04:17:17;;;;;;;;;;;3.50;99.90;;;;;;5079451;28;19920;-60
2023/02/10 04:19:42;;;;;;;;;;;3.50;99.90;;;;;;5083396;28;20009;-64
2023/02/10 04:22:08;;;;;;;;;;;3.40;99.90;;;;;;5081327;28;19916;-65
2023/02/10 04:24:34;;;;;;;;;;;3.40;99.90;;;;;;5086511;28;19966;-62
2023/02/10 04:26:59;;;;;;;;;;;3.50;99.90;;;;;;5090587;28;19939;-63
2023/02/10 04:29:25;;;;;;;;;;;3.60;99.90;;;;;;5085450;28;19919;-63
2023/02/10 04:31:50;;;;;;;;;;;3.70;99.90;;;;;;5093655;28;19951;-66
2023/02/10 04:34:16;;;;;;;;;;;3.70;99.90;;;;;;5095264;28;19934;-69
2023/02/10 04:36:42;;;;;;;;;;;3.60;99.90;;;;;;5094225;28;19930;-60
2023/02/10 04:39:07;;;;;;;;;;;3.60;99.90;;;;;;5093251;28;19922;-62
2023/02/10 04:41:33;;;;;;;;;;;3.60;99.90;;;;;;5094080;28;19995;-65
2023/02/10 04:43:59;;;;;;;;;;;3.60;99.90;;;;;;5093791;28;19912;-63
2023/02/10 04:46:24;;;;;;;;;;;3.50;99.90;;;;;;5094114;28;20019;-63
2023/02/10 04:48:50;;;;;;;;;;;3.50;99.90;;;;;;5093699;28;19916;-62
2023/02/10 04:51:15;;;;;;;;;;;3.50;99.90;;;;;;5093486;28;19908;-62
2023/02/10 04:53:43;;;;;;;;;;;3.60;99.90;;;;;;5091673;28;19908;-64
2023/02/10 04:56:09;;;;;;;;;;;3.60;99.90;;;;;;5073067;28;20483;-65
2023/02/10 04:58:35;;;;;;;;;;;3.70;99.90;;;;;;5077980;28;20308;-66
2023/02/10 05:01:00;;;;;;;;;;;3.70;99.90;;;;;;5075881;28;19969;-61
2023/02/10 05:03:26;;;;;;;;;;;3.70;99.90;;;;;;5077285;28;19925;-65
2023/02/10 05:05:52;;;;;;;;;;;3.70;99.90;;;;;;5077399;28;19919;-62
2023/02/10 05:08:19;;;;;;;;;;;3.70;99.90;;;;;;5082280;28;19921;-64
2023/02/10 05:10:48;;;;;;;;;;;3.60;99.90;;;;;;5077695;28;19916;-61
2023/02/10 05:13:14;;;;;;;;;;;3.40;99.90;;;;;;5075768;28;19919;-61
2023/02/10 05:15:39;;;;;;;;;;;3.40;99.90;;;;;;5077043;28;21772;-64
2023/02/10 05:18:05;;;;;;;;;;;3.40;99.90;;;;;;5077745;28;19922;-61
2023/02/10 05:20:31;;;;;;;;;;;3.40;99.90;;;;;;5082040;28;19912;-64
2023/02/10 05:22:56;;;;;;;;;;;3.40;99.90;;;;;;5065370;28;19974;-68
2023/02/10 05:25:22;;;;;;;;;;;3.40;99.90;;;;;;5076425;28;20407;-65
2023/02/10 05:27:47;;;;;;;;;;;3.30;99.90;;;;;;5076805;28;19913;-65
2023/02/10 05:30:13;;;;;;;;;;;3.40;99.90;;;;;;5085539;28;20035;-65
2023/02/10 05:32:39;;;;;;;;;;;3.30;99.90;;;;;;5061882;28;20346;-61
2023/02/10 05:35:05;;;;;;;;;;;3.20;99.90;;;;;;5076383;28;20346;-62
2023/02/10 05:37:31;;;;;;;;;;;3.20;99.90;;;;;;5077091;28;19923;-65
2023/02/10 05:39:56;;;;;;;;;;;3.20;99.90;;;;;;5075650;28;19934;-62
2023/02/10 05:42:22;;;;;;;;;;;3.20;99.90;;;;;;5080145;28;19920;-64
2023/02/10 05:44:48;;;;;;;;;;;3.20;99.90;;;;;;5076457;28;20369;-65
2023/02/10 05:47:13;;;;;;;;;;;3.20;99.90;;;;;;5076772;28;19912;-62
2023/02/10 05:49:39;;;;;;;;;;;3.30;99.90;;;;;;5077221;28;19921;-64
2023/02/10 05:52:05;;;;;;;;;;;3.30;99.90;;;;;;5089762;28;19919;-65
2023/02/10 05:54:30;;;;;;;;;;;3.30;99.90;;;;;;5080142;28;19916;-64
2023/02/10 05:56:56;;;;;;;;;;;3.30;99.90;;;;;;5072503;28;19912;-65
2023/02/10 05:59:21;;;;;;;;;;;3.30;99.90;;;;;;5075260;28;19923;-65
2023/02/10 06:01:47;;;;;;;;;;;3.30;99.90;;;;;;5088928;28;20270;-64
2023/02/10 06:04:13;;;;;;;;;;;3.40;99.90;;;;;;5082545;28;20381;-65
2023/02/10 06:06:38;;;;;;;;;;;3.30;99.90;;;;;;5081053;28;20557;-63
2023/02/10 06:09:04;;;;;;;;;;;3.30;99.90;;;;;;5080052;28;20322;-63
2023/02/10 06:11:30;;;;;;;;;;;3.40;99.90;;;;;;5080657;28;19920;-65
2023/02/10 06:13:56;;;;;;;;;;;3.50;99.90;;;;;;5080300;28;19938;-65
2023/02/10 06:16:21;;;;;;;;;;;3.50;99.90;;;;;;5081628;28;19912;-64
2023/02/10 06:18:47;;;;;;;;;;;3.50;99.90;;;;;;5081185;28;19941;-64
2023/02/10 06:21:14;;;;;;;;;;;3.60;99.90;;;;;;5079206;28;19920;-64
2023/02/10 06:23:40;;;;;;;;;;;3.60;99.90;;;;;;5083073;28;19965;-63
2023/02/10 06:26:05;;;;;;;;;;;3.50;99.90;;;;;;5087387;28;19913;-64
2023/02/10 06:28:31;;;;;;;;;;;3.60;99.90;;;;;;5093372;28;20601;-63
2023/02/10 06:30:57;;;;;;;;;;;3.50;99.90;;;;;;5093491;28;20293;-62
2023/02/10 06:33:23;;;;;;;;;;;3.50;99.90;;;;;;5093961;28;19959;-66
2023/02/10 06:35:48;;;;;;;;;;;3.50;99.90;;;;;;5094421;28;19908;-61
2023/02/10 06:38:15;;;;;;;;;;;3.50;99.90;;;;;;5092392;28;19957;-66
2023/02/10 06:40:41;;;;;;;;;;;3.60;99.90;;;;;;5068245;28;19908;-64
2023/02/10 06:43:06;;;;;;;;;;;3.60;99.90;;;;;;5101816;28;19915;-64
2023/02/10 06:45:33;;;;;;;;;;;3.80;99.90;;;;;;5076286;28;19919;-64
2023/02/10 06:47:58;;;;;;;;;;;3.60;99.90;;;;;;5094189;28;19915;-63
2023/02/10 06:50:24;;;;;;;;;;;3.50;99.90;;;;;;5094009;28;20281;-65
2023/02/10 06:52:50;;;;;;;;;;;3.40;99.90;;;;;;5093942;28;20373;-63
2023/02/10 06:55:16;;;;;;;;;;;3.50;99.90;;;;;;5092574;28;19958;-63
2023/02/10 06:57:41;;;;;;;;;;;3.40;99.90;;;;;;5079662;28;19916;-64
2023/02/10 07:00:11;;;;;;;;;;;3.40;99.90;;;;;;5078799;28;19947;-65
2023/02/10 07:02:38;;;;;;;;;;;3.60;99.90;;;;;;5079018;28;19977;-64
2023/02/10 07:05:06;;;;;;;;;;;3.80;99.90;;;;;;5081479;28;19916;-64
2023/02/10 07:07:32;;;;;;;;;;;3.90;99.90;;;;;;5097805;28;19916;-63
2023/02/10 07:09:57;;;;;;;;;;;4.00;99.90;;;;;;5081205;28;19916;-63
2023/02/10 07:12:24;;;;;;;;;;;3.90;99.90;;;;;;5080467;28;19913;-65
2023/02/10 07:14:50;;;;;;;;;;;3.90;99.90;;;;;;5081142;28;20014;-62
2023/02/10 07:17:16;;;;;;;;;;;3.90;99.90;;;;;;5079837;28;19917;-61
2023/02/10 07:19:42;;;;;;;;;;;4.00;99.90;;;;;;5078570;28;19937;-65
2023/02/10 07:22:08;;;;;;;;;;;4.00;99.90;;;;;;5076731;28;19927;-64
2023/02/10 07:24:34;;;;;;;;;;;4.00;99.90;;;;;;5080102;28;19924;-63
2023/02/10 07:26:59;;;;;;;;;;;4.00;99.90;;;;;;5078652;28;20332;-65
2023/02/10 07:29:25;;;;;;;;;;;4.00;99.90;;;;;;5075578;28;19920;-65
2023/02/10 07:31:51;;;;;;;;;;;4.10;99.90;;;;;;5080471;28;20400;-70
2023/02/10 07:34:19;;;;;;;;;;;4.20;99.90;;;;;;5086976;28;19956;-63
2023/02/10 07:36:45;;;;;;;;;;;4.20;99.90;;;;;;5078992;28;19916;-64
2023/02/10 07:39:11;;;;;;;;;;;4.30;99.90;;;;;;5079171;28;19961;-61
2023/02/10 07:41:36;;;;;;;;;;;4.20;99.90;;;;;;5096173;28;19911;-65
2023/02/10 07:44:02;;;;;;;;;;;4.10;99.90;;;;;;5079107;28;20332;-65
2023/02/10 07:46:28;;;;;;;;;;;4.10;99.90;;;;;;5078147;28;19919;-67
2023/02/10 07:48:53;;;;;;;;;;;4.20;99.90;;;;;;5078614;28;19920;-64
2023/02/10 07:51:19;;;;;;;;;;;4.20;99.90;;;;;;5092365;28;19916;-65
2023/02/10 07:53:44;;;;;;;;;;;4.20;99.90;;;;;;5078133;28;20008;-65
2023/02/10 07:56:10;;;;;;;;;;;4.30;99.90;;;;;;5079328;28;20396;-67
2023/02/10 07:58:36;;;;;;;;;;;4.30;99.90;;;;;;5102869;28;19916;-63
2023/02/10 08:01:08;;;;;;;;;;;4.50;99.90;;;;;;5102138;28;19957;-66
2023/02/10 08:03:34;;;;;;;;;;;4.50;99.90;;;;;;5105668;28;20281;-62
2023/02/10 08:05:59;;;;;;;;;;;4.50;99.90;;;;;;5111604;28;19908;-62
2023/02/10 08:08:25;;;;;;;;;;;4.40;99.90;;;;;;5110532;28;19939;-65
2023/02/10 08:10:50;;;;;;;;;;;4.30;99.90;;;;;;5106888;28;19908;-64
2023/02/10 08:13:16;;;;;;;;;;;4.40;99.90;;;;;;5077076;28;19926;-62
2023/02/10 08:15:42;;;;;;;;;;;4.30;99.90;;;;;;5076892;28;20120;-65
2023/02/10 08:18:07;;;;;;;;;;;4.30;99.90;;;;;;5076264;28;19916;-62
2023/02/10 08:20:33;;;;;;;;;;;4.30;99.90;;;;;;5074815;28;19923;-62
2023/02/10 08:22:59;;;;;;;;;;;4.30;99.90;;;;;;5076548;28;19916;-65
2023/02/10 08:25:25;;;;;;;;;;;4.30;99.90;;;;;;5077352;28;19927;-63
2023/02/10 08:27:50;;;;;;;;;;;4.40;99.90;;;;;;5085586;28;20399;-63
2023/02/10 08:30:16;;;;;;;;;;;4.50;99.90;;;;;;5101542;28;19912;-64
2023/02/10 08:32:42;;;;;;;;;;;4.60;99.90;;;;;;5095207;28;19915;-64
2023/02/10 08:35:07;;;;;;;;;;;4.70;99.90;;;;;;5100760;28;19919;-65
2023/02/10 08:37:33;;;;;;;;;;;4.70;99.90;;;;;;5101941;28;19912;-65
2023/02/10 08:39:59;;;;;;;;;;;4.80;99.90;;;;;;5102772;28;20427;-64
2023/02/10 08:42:25;;;;;;;;;;;4.80;99.90;;;;;;5100969;28;19920;-65
2023/02/10 08:44:50;;;;;;;;;;;4.80;99.90;;;;;;5102632;28;19915;-64
2023/02/10 08:47:16;;;;;;;;;;;4.80;99.90;;;;;;5101681;28;20365;-65
2023/02/10 08:49:42;;;;;;;;;;;4.80;99.90;;;;;;5105941;28;19916;-65
2023/02/10 08:52:08;;;;;;;;;;;4.90;99.90;;;;;;5103003;28;19998;-63
2023/02/10 08:54:33;;;;;;;;;;;4.90;99.90;;;;;;5102039;28;20570;-64
2023/02/10 08:56:59;;;;;;;;;;;5.00;99.90;;;;;;5100189;28;20004;-62
2023/02/10 08:59:25;;;;;;;;;;;5.20;99.30;;;;;;5078143;28;19920;-65
2023/02/10 09:01:50;;;;;;;;;;;5.40;99.10;;;;;;5096044;28;20414;-66
2023/02/10 09:04:16;;;;;;;;;;;5.50;99.20;;;;;;5077932;28;20438;-65
2023/02/10 09:06:43;;;;;;;;;;;5.50;99.10;;;;;;5076129;28;19927;-64
2023/02/10 09:09:13;;;;;;;;;;;5.40;99.10;;;;;;5077561;28;19912;-66
2023/02/10 09:11:39;;;;;;;;;;;5.40;99.10;;;;;;5085247;28;19912;-65
2023/02/10 09:14:05;;;;;;;;;;;5.50;99.20;;;;;;5075560;28;19916;-66
2023/02/10 09:16:30;;;;;;;;;;;5.70;98.90;;;;;;5077545;28;19926;-66
2023/02/10 09:18:56;;;;;;;;;;;5.70;98.20;;;;;;5074494;28;19920;-67
2023/02/10 09:21:22;;;;;;;;;;;5.90;98.20;;;;;;5091120;28;20020;-66
2023/02/10 09:23:47;;;;;;;;;;;5.90;98.20;;;;;;5074462;28;19956;-66
2023/02/10 09:26:13;;;;;;;;;;;6.00;98.50;;;;;;5091170;28;19927;-67
2023/02/10 09:28:39;;;;;;;;;;;6.10;98.10;;;;;;5078980;28;20324;-65
2023/02/10 09:31:08;;;;;;;;;;;6.30;97.90;;;;;;5078261;28;19966;-64
2023/02/10 09:33:35;;;;;;;;;;;6.40;97.60;;;;;;5075813;28;19913;-66
2023/02/10 09:36:04;;;;;;;;;;;6.50;97.60;;;;;;5081618;28;19912;-68
2023/02/10 09:38:30;;;;;;;;;;;6.50;97.10;;;;;;5080896;28;19920;-67
2023/02/10 09:41:04;;;;;;;;;;;6.50;96.90;;;;;;5083155;28;21148;-65
2023/02/10 09:43:53;;;;;;;;;;;6.50;97.20;;;;;;5087198;28;19963;-66
2023/02/10 09:46:18;;;;;;;;;;;6.50;97.40;;;;;;5081777;28;19935;-68
2023/02/10 09:48:44;;;;;;;;;;;6.40;96.80;;;;;;5080648;28;20360;-68
2023/02/10 09:51:23;;;;;;;;;;;6.50;96.80;;;;;;5081252;28;19916;-67
2023/02/10 09:53:49;;;;;;;;;;;6.50;96.70;;;;;;5079640;28;19912;-65
2023/02/10 09:56:19;;;;;;;;;;;6.60;96.70;;;;;;5077724;28;19921;-68
2023/02/10 09:58:55;;;;;;;;;;;6.60;96.50;;;;;;5079797;28;19915;-68
2023/02/10 10:01:32;;;;;;;;;;;6.80;96.60;;;;;;5077432;28;20324;-65
2023/02/10 10:04:01;;;;;;;;;;;6.80;96.20;;;;;;5079499;28;19923;-67
2023/02/10 10:06:31;;;;;;;;;;;6.90;96.20;;;;;;5077866;28;19912;-67
2023/02/10 10:09:20;;;;;;;;;;;6.80;96.10;;;;;;5076456;28;20434;-64
2023/02/10 10:11:47;;;;;;;;;;;6.80;96.30;;;;;;5077453;28;19924;-64
2023/02/10 10:14:17;;;;;;;;;;;6.80;95.90;;;;;;5079334;28;20972;-67
2023/02/10 10:16:55;;;;;;;;;;;6.90;95.80;;;;;;5080834;28;19955;-65
2023/02/10 10:19:43;;;;;;;;;;;7.00;95.80;;;;;;5078025;28;19962;-65
2023/02/10 10:22:27;;;;;;;;;;;7.00;95.70;;;;;;5079164;28;19938;-68
2023/02/10 10:24:52;;;;;;;;;;;7.10;95.90;;;;;;5078829;28;19974;-66
2023/02/10 10:27:30;;;;;;;;;;;7.20;95.60;;;;;;5088311;28;19912;-67
2023/02/10 10:30:00;;;;;;;;;;;7.30;95.30;;;;;;5088865;28;19919;-65
2023/02/10 10:32:35;;;;;;;;;;;7.50;95.40;;;;;;5096323;28;19945;-66
2023/02/10 10:35:01;;;;;;;;;;;7.60;94.50;;;;;;5077939;28;19999;-64
2023/02/10 10:37:26;;;;;;;;;;;7.70;95.00;;;;;;5080680;28;19991;-63
2023/02/10 10:39:53;;;;;;;;;;;7.70;94.80;;;;;;5080147;28;19961;-66
2023/02/10 10:42:25;;;;;;;;;;;7.80;94.50;;;;;;5080218;28;19942;-65
2023/02/10 10:44:54;;;;;;;;;;;7.80;94.40;;;;;;5080047;28;20322;-64
2023/02/10 10:47:38;;;;;;;;;;;7.80;94.30;;;;;;5079919;28;19979;-67
2023/02/10 10:50:05;;;;;;;;;;;7.90;94.00;;;;;;5080045;28;20281;-64
2023/02/10 10:52:33;;;;;;;;;;;8.00;93.80;;;;;;5080032;28;19939;-67
2023/02/10 10:55:01;;;;;;;;;;;8.00;93.90;;;;;;5080135;28;20007;-65
2023/02/10 10:57:27;;;;;;;;;;;8.20;99.90;;;;;;5079314;28;19912;-69
2023/02/10 10:59:56;;;;;;;;;;;8.30;97.60;;;;;;5079421;28;19912;-63
2023/02/10 11:02:23;;;;;;;;;;;8.40;97.00;;;;;;5083783;28;19908;-63
2023/02/10 11:05:05;;;;;;;;;;;8.70;94.30;;;;;;5089799;28;20389;-67
2023/02/10 11:07:32;;;;;;;;;;;8.70;94.10;;;;;;5077671;28;19920;-68
2023/02/10 11:09:59;;;;;;;;;;;8.70;93.90;;;;;;5081047;28;19928;-67
2023/02/10 11:12:38;;;;;;;;;;;8.70;93.40;;;;;;5064325;28;20547;-68
2023/02/10 11:15:23;;;;;;;;;;;8.70;93.50;;;;;;5068191;28;19931;-67
2023/02/10 11:17:49;;;;;;;;;;;8.60;93.60;;;;;;5090997;28;19980;-68
2023/02/10 11:20:15;;;;;;;;;;;8.70;93.70;;;;;;5074605;28;19916;-64
2023/02/10 11:22:42;;;;;;;;;;;8.80;93.80;;;;;;5088233;28;19921;-67
2023/02/10 11:25:28;;;;;;;;;;;8.80;93.00;;;;;;5087062;28;19923;-67
2023/02/10 11:27:54;;;;;;;;;;;8.80;93.20;;;;;;5084007;28;19972;-66
2023/02/10 11:30:31;;;;;;;;;;;8.90;92.80;;;;;;5089073;28;20021;-66
2023/02/10 11:32:57;;;;;;;;;;;8.90;93.10;;;;;;5086401;28;19923;-68
2023/02/10 11:35:23;;;;;;;;;;;9.00;93.10;;;;;;5091543;28;20003;-68
2023/02/10 11:37:54;;;;;;;;;;;9.00;92.70;;;;;;5092143;28;19920;-67
2023/02/10 11:40:22;;;;;;;;;;;9.00;93.00;;;;;;5093681;28;19912;-65
2023/02/10 11:42:49;;;;;;;;;;;9.00;92.90;;;;;;5089253;28;19919;-66
2023/02/10 11:45:19;;;;;;;;;;;9.10;92.80;;;;;;5086227;28;19981;-64
2023/02/10 11:47:45;;;;;;;;;;;9.00;93.10;;;;;;5090686;28;19954;-64
2023/02/10 11:50:21;;;;;;;;;;;9.10;93.10;;;;;;5091835;28;19912;-68
2023/02/10 11:52:47;;;;;;;;;;;9.10;93.20;;;;;;5091581;28;20361;-66
2023/02/10 11:55:13;;;;;;;;;;;9.20;93.60;;;;;;5088700;28;19912;-67
2023/02/10 12:01:08;;;;;;;;;;;9.30;93.00;;;;;;5093960;28;19961;-67
2023/02/10 12:03:45;;;;;;;;;;;9.30;92.90;;;;;;5032584;28;20579;-68
2023/02/10 12:06:20;;;;;;;;;;;9.30;92.90;;;;;;5084552;28;19908;-67
2023/02/10 12:08:45;;;;;;;;;;;9.30;92.80;;;;;;5083534;28;19928;-66
2023/02/10 12:11:23;;;;;;;;;;;9.40;93.00;;;;;;5093122;28;19912;-65
2023/02/10 12:13:52;;;;;;;;;;;9.40;92.40;;;;;;5084121;28;20010;-63
2023/02/10 12:16:17;;;;;;;;;;;9.40;91.90;;;;;;5090844;28;19923;-66
2023/02/10 12:18:52;;;;;;;;;;;9.40;92.30;;;;;;5085723;28;19917;-67
2023/02/10 12:21:36;;;;;;;;;;;9.40;92.10;;;;;;5092948;28;19916;-68
2023/02/10 12:24:08;;;;;;;;;;;9.50;92.00;;;;;;5086495;28;19977;-64
2023/02/10 12:26:39;;;;;;;;;;;9.50;91.90;;;;;;5100766;28;20148;-67
2023/02/10 12:29:24;;;;;;;;;;;9.40;91.90;;;;;;5106615;28;20401;-66
2023/02/10 12:31:49;;;;;;;;;;;9.50;91.80;;;;;;5105325;28;20286;-67
2023/02/10 12:34:18;;;;;;;;;;;9.60;91.30;;;;;;5102979;28;19911;-65
2023/02/10 12:36:46;;;;;;;;;;;9.60;91.20;;;;;;5090196;28;19912;-68
2023/02/10 12:39:22;;;;;;;;;;;9.60;91.30;;;;;;5095912;28;19916;-67
2023/02/10 12:42:23;;;;;;;;;;;9.50;91.40;;;;;;5101007;28;19912;-65
2023/02/10 12:45:03;;;;;;;;;;;9.60;91.60;;;;;;5023443;28;19928;-68
2023/02/10 12:47:47;;;;;;;;;;;9.60;91.40;;;;;;5087535;28;19995;-67
2023/02/10 12:50:16;;;;;;;;;;;9.60;91.10;;;;;;5100284;28;19918;-67
2023/02/10 12:52:53;;;;;;;;;;;9.60;91.10;;;;;;5087608;28;19919;-67
2023/02/10 12:55:22;;;;;;;;;;;9.60;90.80;;;;;;5079299;28;20372;-68
2023/02/10 12:58:10;;;;;;;;;;;9.60;90.70;;;;;;5075802;28;19916;-66
2023/02/10 13:00:39;;;;;;;;;;;9.60;91.20;;;;;;5067051;28;20342;-66
2023/02/10 13:03:23;;;;;;;;;;;9.70;91.10;;;;;;5076368;28;19978;-65
2023/02/10 13:05:51;;;;;;;;;;;9.60;90.80;;;;;;5076578;28;19916;-68
2023/02/10 13:08:19;;;;;;;;;;;9.60;90.40;;;;;;5076443;28;19951;-67
2023/02/10 13:10:47;;;;;;;;;;;9.70;90.60;;;;;;5092502;28;19920;-65
2023/02/10 13:13:18;;;;;;;;;;;9.70;90.40;;;;;;5087337;28;20003;-67
2023/02/10 13:15:47;;;;;;;;;;;9.70;90.40;;;;;;5088395;28;19912;-69
2023/02/10 13:18:21;;;;;;;;;;;9.80;90.40;;;;;;5090183;28;19908;-66
2023/02/10 13:20:46;;;;;;;;;;;9.70;90.20;;;;;;5089378;28;19916;-64
2023/02/10 13:23:24;;;;;;;;;;;9.70;90.30;;;;;;5086933;28;19932;-68
2023/02/10 13:26:08;;;;;;;;;;;9.80;90.40;;;;;;5088208;28;20007;-68
2023/02/10 13:28:44;;;;;;;;;;;9.90;90.60;;;;;;5087701;28;19912;-65
2023/02/10 13:31:28;;;;;;;;;;;9.90;90.20;;;;;;5089381;28;19912;-64
2023/02/10 13:34:11;;;;;;;;;;;9.80;90.10;;;;;;5082055;28;20364;-66
2023/02/10 13:36:38;;;;;;;;;;;9.90;90.30;;;;;;5088926;28;20588;-67
2023/02/10 13:39:13;;;;;;;;;;;9.90;90.30;;;;;;5086075;28;19912;-68
2023/02/10 13:41:42;;;;;;;;;;;9.90;89.80;;;;;;5087413;28;19924;-68
2023/02/10 13:44:16;;;;;;;;;;;9.90;90.00;;;;;;5091389;28;19916;-65
2023/02/10 13:46:42;;;;;;;;;;;9.90;90.00;;;;;;5087610;28;20293;-68
2023/02/10 13:49:15;;;;;;;;;;;10.10;90.20;;;;;;5087711;28;19912;-66
2023/02/10 13:51:41;;;;;;;;;;;10.10;90.00;;;;;;5075552;28;20483;-68
2023/02/10 13:54:22;;;;;;;;;;;10.20;89.70;;;;;;5092367;28;19919;-69
2023/02/10 13:56:53;;;;;;;;;;;10.20;89.40;;;;;;5088087;28;19948;-66
2023/02/10 13:59:18;;;;;;;;;;;10.30;90.10;;;;;;5092485;28;19919;-66
2023/02/10 14:01:48;;;;;;;;;;;10.20;90.00;;;;;;5093170;28;19938;-68
2023/02/10 14:04:17;;;;;;;;;;;10.30;89.70;;;;;;5093704;28;19980;-68
2023/02/10 14:06:50;;;;;;;;;;;10.30;89.80;;;;;;5092631;28;20390;-68
2023/02/10 14:09:30;;;;;;;;;;;10.30;90.10;;;;;;5088475;28;20238;-68
2023/02/10 14:11:57;;;;;;;;;;;10.30;90.00;;;;;;5090655;28;19916;-68
2023/02/10 14:14:34;;;;;;;;;;;10.20;90.10;;;;;;5093636;28;19919;-66
2023/02/10 14:17:05;;;;;;;;;;;10.20;90.50;;;;;;5088224;28;20019;-67
2023/02/10 14:19:32;;;;;;;;;;;10.20;90.30;;;;;;5082537;28;19916;-68
2023/02/10 14:21:59;;;;;;;;;;;10.10;90.40;;;;;;5089929;28;20130;-68
2023/02/10 14:24:34;;;;;;;;;;;10.20;90.60;;;;;;5094929;28;19912;-67
2023/02/10 14:27:01;;;;;;;;;;;10.20;90.60;;;;;;5107025;28;20001;-68
2023/02/10 14:29:28;;;;;;;;;;;10.10;90.60;;;;;;5098541;28;19996;-68
2023/02/10 14:31:56;;;;;;;;;;;10.10;90.80;;;;;;5105594;28;20246;-69
2023/02/10 14:34:23;;;;;;;;;;;10.20;90.70;;;;;;5101991;28;19919;-68
2023/02/10 14:37:09;;;;;;;;;;;10.10;90.70;;;;;;5101808;28;20003;-68
2023/02/10 14:39:36;;;;;;;;;;;10.20;90.60;;;;;;5088522;28;20361;-68